Terminal Aerodrome Forecast
Issued by NWS Twin Cities, MN

Home | Current Version | Previous Version | Graphics & Text | Print | Product List | Glossary On
Versions: 1 2 3 4 5 6 7 8 9 10 11 12 13 14 15 16
113
FTUS43 KMPX 261735
TAFSTC
TAF
KSTC 261735Z 2618/2718 20008KT P6SM SCT050
     FM262200 27011KT P6SM SKC
     FM270200 27004KT P6SM SKC
     FM271400 25005KT P6SM BKN100=

USA.gov is the U.S. government's official web portal to all federal, state and local government web resources and services.